This demonstration page uses our WeatherBlox Daily Observations layout. Learn more.

Left ArrowRight Arrow

Hourly Observations for April 4, 2015

Temp ( °F °C ) Dew Point ( °F °C ) Humidity (%) Winds ( mph kmh ) Pressure ( in mb ) Visibility ( mi km ) Precip ( " mm )
12:53 am 00:53 Clear 44 6.7 36 2.2 73 73 NW 12 19 30.09 1019 10 16.0934 0 0
1:53 am 01:53 Mostly Cloudy 43 6.1 34 1.1 71 71 NNW 15 24 30.12 1020 10 16.0934 0 0
2:53 am 02:53 Clear 40 4.4 30 -1.1 68 68 NW 17 28 30.16 1021 10 16.0934 0 0
3:53 am 03:53 Clear 37 2.8 27 -2.8 67 67 NW 14 22 30.2 1023 10 16.0934 0 0
4:53 am 04:53 Clear 35 1.7 26 -3.3 70 70 WNW 12 19 30.24 1024 10 16.0934 0 0
5:53 am 05:53 Clear 34 1.1 26 -3.3 73 73 NW 9 15 30.26 1025 10 16.0934 0 0
6:53 am 06:53 Clear 33 0.6 26 -3.3 75 75 WNW 7 11 30.29 1026 10 16.0934 0 0
7:53 am 07:53 Sunny 33 0.6 26 -3.3 75 75 NW 7 11 30.32 1027 10 16.0934 0 0
8:53 am 08:53 Sunny 37 2.8 26 -3.3 65 65 NNW 6 9 30.34 1027 10 16.0934 0 0
9:53 am 09:53 Sunny 39 3.9 25 -3.9 57 57 NW 8 13 30.35 1028 10 16.0934 0 0
10:53 am 10:53 Sunny 41 5 25 -3.9 53 53 undefined N/A 30.37 1029 10 16.0934 0 0
11:53 am 11:53 Sunny 43 6.1 24 -4.4 47 47 W 8 13 30.37 1028 10 16.0934 0 0
12:53 pm 12:53 Sunny 46 7.8 27 -2.8 47 47 VRB 5 7 30.36 1028 10 16.0934 0 0
1:53 pm 13:53 Sunny 49 9.4 28 -2.2 44 44 W 8 13 30.35 1028 10 16.0934 0 0
2:53 pm 14:53 Sunny 50 10 28 -2.2 43 43 WSW 5 7 30.34 1027 10 16.0934 0 0
3:53 pm 15:53 Sunny 53 11.7 27 -2.8 37 37 W 7 11 30.31 1026 10 16.0934 0 0
4:53 pm 16:53 Sunny 54 12.2 26 -3.3 34 34 WSW 8 13 30.3 1026 10 16.0934 0 0
5:53 pm 17:53 Sunny 55 12.8 28 -2.2 35 35 WSW 7 11 30.29 1026 10 16.0934 0 0
6:53 pm 18:53 Sunny 54 12.2 28 -2.2 37 37 W 9 15 30.28 1025 10 16.0934 0 0
7:53 pm 19:53 Sunny 51 10.6 30 -1.1 44 44 WSW 5 7 30.27 1025 10 16.0934 0 0
8:53 pm 20:53 Clear 47 8.3 34 1.1 61 61 Calm 30.28 1026 10 16.0934 0 0
9:53 pm 21:53 Clear 41 5 33 0.6 73 73 Calm 30.3 1026 10 16.0934 0 0
10:53 pm 22:53 Clear 40 4.4 32 0 73 73 Calm 30.3 1026 10 16.0934 0 0
11:53 pm 23:53 Clear 38 3.3 31 -0.6 76 76 Calm 30.3 1026 10 16.0934 0 0

Powered by AerisWeather